Time;durP1;ratioP1;P1;durP2;ratioP2;P2;SDS_P1;SDS_P2;PMS_P1;PMS_P2;Temp;Humidity;BMP_temperature;BMP_pressure;BME280_temperature;BME280_humidity;BME280_pressure;Samples;Min_cycle;Max_cycle;Signal;HPM_P1;HPM_P2
2024/01/13 00:01:03;;;;;;;19.05;9.95;;;-2.00;99.90;;;;;;5039599;28;20037;-37
2024/01/13 00:03:30;;;;;;;19.80;9.85;;;-2.10;99.90;;;;;;5036675;28;20068;-39
2024/01/13 00:05:59;;;;;;;19.40;9.88;;;-2.00;99.90;;;;;;5040300;28;20041;-37
2024/01/13 00:08:26;;;;;;;19.17;9.40;;;-2.00;99.90;;;;;;5037862;28;20538;-39
2024/01/13 00:11:03;;;;;;;17.50;9.05;;;-2.00;99.90;;;;;;5036894;28;20069;-38
2024/01/13 00:13:30;;;;;;;17.80;9.55;;;-2.20;99.90;;;;;;5037389;28;20422;-38
2024/01/13 00:15:57;;;;;;;19.67;8.93;;;-2.10;99.90;;;;;;5039309;28;20047;-42
2024/01/13 00:18:24;;;;;;;19.48;9.52;;;-2.10;99.90;;;;;;5037479;28;20034;-39
2024/01/13 00:21:05;;;;;;;20.25;10.45;;;-2.10;99.90;;;;;;5034447;28;20051;-40
2024/01/13 00:23:33;;;;;;;18.65;9.70;;;-2.10;99.90;;;;;;5034256;28;20152;-38
2024/01/13 00:26:00;;;;;;;20.75;10.45;;;-2.10;99.90;;;;;;5033057;28;20461;-40
2024/01/13 00:28:27;;;;;;;22.75;10.93;;;-2.10;99.90;;;;;;5033330;28;20088;-42
2024/01/13 00:31:04;;;;;;;20.95;10.00;;;-2.10;99.90;;;;;;5031058;28;20049;-39
2024/01/13 00:33:32;;;;;;;17.52;8.90;;;-2.10;99.90;;;;;;5031174;28;20156;-39
2024/01/13 00:36:00;;;;;;;19.00;10.73;;;-2.20;99.90;;;;;;5033653;28;20437;-38
2024/01/13 00:38:27;;;;;;;22.48;10.85;;;-2.10;99.90;;;;;;5031159;28;20050;-38
2024/01/13 00:41:05;;;;;;;21.42;11.18;;;-2.10;99.90;;;;;;5033431;28;20434;-41
2024/01/13 00:43:35;;;;;;;22.38;11.07;;;-2.10;99.90;;;;;;5031626;28;20128;-40
2024/01/13 00:46:03;;;;;;;25.20;12.15;;;-2.10;99.90;;;;;;5032729;28;20132;-42
2024/01/13 00:48:30;;;;;;;21.58;11.20;;;-2.00;99.90;;;;;;5032519;28;20069;-41
2024/01/13 00:51:08;;;;;;;20.98;10.32;;;-1.90;99.90;;;;;;5029556;28;20056;-42
2024/01/13 00:53:36;;;;;;;26.00;12.27;;;-2.00;99.90;;;;;;5032361;28;20316;-37
2024/01/13 00:56:03;;;;;;;23.52;11.20;;;-2.00;99.90;;;;;;5035024;28;20123;-39
2024/01/13 00:58:30;;;;;;;23.33;11.85;;;-2.10;99.90;;;;;;5030839;28;20252;-40
2024/01/13 01:01:10;;;;;;;22.83;10.57;;;-2.10;99.90;;;;;;5031035;28;20075;-39
2024/01/13 01:03:37;;;;;;;23.95;11.20;;;-2.10;99.90;;;;;;5030583;28;20053;-39
2024/01/13 01:06:05;;;;;;;22.02;10.98;;;-2.00;99.90;;;;;;5032393;28;20136;-40
2024/01/13 01:08:32;;;;;;;23.08;11.65;;;-2.00;99.90;;;;;;5030159;28;20502;-41
2024/01/13 01:11:07;;;;;;;24.73;12.75;;;-2.00;99.90;;;;;;5029672;28;20053;-39
2024/01/13 01:13:34;;;;;;;24.10;12.30;;;-2.10;99.90;;;;;;5032548;28;20099;-38
2024/01/13 01:16:01;;;;;;;23.08;11.43;;;-2.00;99.90;;;;;;5032364;28;20158;-41
2024/01/13 01:18:28;;;;;;;22.90;11.80;;;-2.00;99.90;;;;;;5031610;28;20053;-38
2024/01/13 01:21:10;;;;;;;;;;;-1.90;99.90;;;;;;5030490;28;20095;-43
2024/01/13 01:23:38;;;;;;;19.38;10.02;;;-1.90;99.90;;;;;;5034056;28;19998;-40
2024/01/13 01:26:05;;;;;;;20.90;10.25;;;-1.90;99.90;;;;;;5031864;28;20406;-40
2024/01/13 01:28:31;;;;;;;22.48;11.38;;;-2.00;99.90;;;;;;5030905;28;20059;-38
2024/01/13 01:31:06;;;;;;;25.38;12.15;;;-1.90;99.90;;;;;;5032524;28;20049;-39
2024/01/13 01:33:35;;;;;;;27.98;11.80;;;-2.00;99.90;;;;;;5029467;28;20140;-39
2024/01/13 01:36:02;;;;;;;22.73;10.88;;;-2.00;99.90;;;;;;5034805;28;20037;-38
2024/01/13 01:38:30;;;;;;;21.67;11.68;;;-2.10;99.90;;;;;;5030825;28;20569;-39
2024/01/13 01:41:10;;;;;;;23.05;11.35;;;-2.10;99.90;;;;;;5031055;28;20041;-45
2024/01/13 01:43:38;;;;;;;23.95;11.82;;;-2.00;99.90;;;;;;5032756;28;20147;-39
2024/01/13 01:46:06;;;;;;;25.65;12.15;;;-2.00;99.90;;;;;;5032455;28;20130;-39
2024/01/13 01:48:37;;;;;;;23.02;11.30;;;-2.00;99.90;;;;;;5030859;28;20045;-36
2024/01/13 01:51:09;;;;;;;25.25;12.00;;;-2.10;99.90;;;;;;5033098;28;20068;-39
2024/01/13 01:53:38;;;;;;;24.88;10.82;;;-2.20;99.90;;;;;;5032154;28;20041;-40
2024/01/13 01:56:11;;;;;;;25.67;11.45;;;-2.20;99.90;;;;;;5034490;28;20049;-39
2024/01/13 01:58:39;;;;;;;23.02;10.10;;;-2.20;99.90;;;;;;5028675;28;20088;-39
2024/01/13 02:01:07;;;;;;;27.35;12.63;;;-2.20;99.90;;;;;;5033333;28;20033;-40
2024/01/13 02:03:37;;;;;;;26.25;11.95;;;-2.20;99.90;;;;;;5027194;28;20046;-37
2024/01/13 02:06:05;;;;;;;23.67;10.48;;;-2.20;99.90;;;;;;5032352;28;20121;-44
2024/01/13 02:08:33;;;;;;;25.55;10.88;;;-2.20;99.90;;;;;;5030092;28;20573;-38
2024/01/13 02:11:11;;;;;;;20.75;10.75;;;-2.10;99.90;;;;;;5030733;28;20406;-39
2024/01/13 02:13:42;;;;;;;24.85;10.75;;;-2.10;99.90;;;;;;5033802;28;20076;-37
2024/01/13 02:16:10;;;;;;;22.70;10.50;;;-2.10;99.90;;;;;;5031552;28;20603;-40
2024/01/13 02:18:38;;;;;;;22.15;10.43;;;-2.10;99.90;;;;;;5034455;28;20430;-40
2024/01/13 02:21:10;;;;;;;23.25;10.82;;;-2.10;99.90;;;;;;5034275;28;20439;-39
2024/01/13 02:23:38;;;;;;;24.48;10.40;;;-2.10;99.90;;;;;;5037836;28;20073;-41
2024/01/13 02:26:05;;;;;;;22.80;9.90;;;-2.00;99.90;;;;;;5035339;28;20068;-44
2024/01/13 02:28:33;;;;;;;22.23;9.85;;;-2.10;99.90;;;;;;5035321;28;20183;-40
2024/01/13 02:31:14;;;;;;;19.50;9.88;;;-2.10;99.90;;;;;;5035287;28;20526;-37
2024/01/13 02:33:44;;;;;;;21.83;9.73;;;-2.10;99.90;;;;;;5035636;28;20132;-40
2024/01/13 02:36:11;;;;;;;21.90;9.30;;;-2.10;99.90;;;;;;5036056;28;20084;-42
2024/01/13 02:38:38;;;;;;;20.45;9.00;;;-2.00;99.90;;;;;;5034874;28;20052;-39
2024/01/13 02:41:06;;;;;;;21.60;10.32;;;-2.10;99.90;;;;;;5036415;28;20128;-38
2024/01/13 02:43:35;;;;;;;20.30;9.70;;;-2.30;99.90;;;;;;5032770;28;20092;-37
2024/01/13 02:46:05;;;;;;;22.25;10.45;;;-2.20;99.90;;;;;;5036805;28;20358;-38
2024/01/13 02:48:43;;;;;;;21.70;9.32;;;-2.20;99.90;;;;;;5032896;28;20053;-40
2024/01/13 02:51:15;;;;;;;22.15;10.32;;;-2.10;99.90;;;;;;5032845;28;20049;-38
2024/01/13 02:53:44;;;;;;;17.50;8.65;;;-2.20;99.90;;;;;;5035505;28;20042;-44
2024/01/13 02:56:12;;;;;;;16.52;8.43;;;-2.20;99.90;;;;;;5033357;28;20103;-38
2024/01/13 02:58:40;;;;;;;19.60;9.13;;;-2.10;99.90;;;;;;5031933;28;20054;-38
2024/01/13 03:01:16;;;;;;;19.95;9.30;;;-2.10;99.90;;;;;;5034653;28;20072;-43
2024/01/13 03:03:49;;;;;;;20.98;10.13;;;-2.00;99.90;;;;;;5034116;28;20296;-39
2024/01/13 03:06:20;;;;;;;19.02;8.88;;;-2.10;99.90;;;;;;5033947;28;20402;-38
2024/01/13 03:08:47;;;;;;;21.65;9.95;;;-2.00;99.90;;;;;;5035033;28;20486;-38
2024/01/13 03:11:14;;;;;;;19.88;9.77;;;-2.00;99.90;;;;;;5031370;28;20045;-39
2024/01/13 03:13:43;;;;;;;19.20;10.25;;;-2.00;99.90;;;;;;5036190;28;20065;-40
2024/01/13 03:16:10;;;;;;;21.13;10.07;;;-2.00;99.90;;;;;;5034280;28;20049;-36
2024/01/13 03:18:37;;;;;;;21.65;10.38;;;-2.00;99.90;;;;;;5032983;28;20121;-40
2024/01/13 03:21:09;;;;;;;18.45;9.63;;;-2.00;99.90;;;;;;5032523;28;20033;-44
2024/01/13 03:23:37;;;;;;;20.55;9.70;;;-2.00;99.90;;;;;;5033041;28;20069;-40
2024/01/13 03:26:05;;;;;;;21.58;10.25;;;-2.00;99.90;;;;;;5033032;28;20033;-41
2024/01/13 03:28:32;;;;;;;24.10;10.38;;;-2.10;99.90;;;;;;5034853;28;20034;-38
2024/01/13 03:31:09;;;;;;;23.60;10.88;;;-2.00;99.90;;;;;;5031908;28;20101;-38
2024/01/13 03:33:37;;;;;;;24.67;11.93;;;-2.00;99.90;;;;;;5034239;28;20049;-39
2024/01/13 03:36:05;;;;;;;23.10;11.35;;;-2.00;99.90;;;;;;5036652;28;20037;-39
2024/01/13 03:38:32;;;;;;;21.55;10.50;;;-2.00;99.90;;;;;;5032387;28;20095;-38
2024/01/13 03:41:09;;;;;;;21.65;10.90;;;-2.00;99.90;;;;;;5031780;28;20464;-37
2024/01/13 03:43:36;;;;;;;20.15;9.90;;;-1.90;99.90;;;;;;5038356;28;20055;-40
2024/01/13 03:46:03;;;;;;;20.98;9.77;;;-1.90;99.90;;;;;;5034744;28;20116;-41
2024/01/13 03:48:31;;;;;;;22.38;11.15;;;-1.90;99.90;;;;;;5033766;28;20498;-41
2024/01/13 03:50:59;;;;;;;21.77;11.25;;;-1.90;99.90;;;;;;5029424;28;20049;-37
2024/01/13 03:53:31;;;;;;;20.70;10.38;;;-1.90;99.90;;;;;;5029271;28;20755;-39
2024/01/13 03:55:58;;;;;;;24.88;11.95;;;-1.90;99.90;;;;;;5034578;28;20048;-39
2024/01/13 03:58:25;;;;;;;23.83;11.27;;;-1.90;99.90;;;;;;5030474;28;20779;-37
2024/01/13 04:00:52;;;;;;;23.50;10.93;;;-1.90;99.90;;;;;;5036332;28;20301;-38
2024/01/13 04:03:21;;;;;;;25.35;11.82;;;-1.90;99.90;;;;;;5033587;28;20038;-41
2024/01/13 04:05:48;;;;;;;24.20;12.57;;;-1.90;99.90;;;;;;5033495;28;20076;-42
2024/01/13 04:08:15;;;;;;;23.23;11.13;;;-1.80;99.90;;;;;;5034309;28;20056;-38
2024/01/13 04:10:42;;;;;;;20.33;10.55;;;-1.80;99.90;;;;;;5035211;28;20041;-38
2024/01/13 04:13:10;;;;;;;24.48;12.07;;;-1.80;99.90;;;;;;5034264;28;20047;-38
2024/01/13 04:15:37;;;;;;;24.05;11.38;;;-1.80;99.90;;;;;;5031488;28;20625;-41
2024/01/13 04:18:05;;;;;;;23.48;11.68;;;-1.80;99.90;;;;;;5035873;28;20037;-50
2024/01/13 04:20:32;;;;;;;20.35;10.98;;;-1.80;99.90;;;;;;5032926;28;20056;-38
2024/01/13 04:22:59;;;;;;;25.60;11.85;;;-1.80;99.90;;;;;;5033779;28;20045;-40
2024/01/13 04:25:26;;;;;;;25.83;12.15;;;-1.80;99.90;;;;;;5030793;28;20041;-39
2024/01/13 04:27:54;;;;;;;23.88;11.55;;;-1.80;99.90;;;;;;5036867;28;21460;-38
2024/01/13 04:30:21;;;;;;;21.65;11.25;;;-1.80;99.90;;;;;;5033639;28;20144;-43
2024/01/13 04:32:48;;;;;;;23.38;11.73;;;-1.80;99.90;;;;;;5034812;28;20048;-36
2024/01/13 04:35:15;;;;;;;25.42;11.48;;;-1.80;99.90;;;;;;5034065;28;20033;-39
2024/01/13 04:37:42;;;;;;;21.52;10.50;;;-1.80;99.90;;;;;;5031540;28;20045;-40
2024/01/13 04:40:09;;;;;;;24.13;11.63;;;-1.80;99.90;;;;;;5033874;28;20116;-39
2024/01/13 04:42:36;;;;;;;22.42;11.25;;;-1.90;99.90;;;;;;5031106;28;20158;-37
2024/01/13 04:45:04;;;;;;;23.60;11.63;;;-2.00;99.90;;;;;;5036414;28;20232;-38
2024/01/13 04:47:31;;;;;;;24.00;11.63;;;-1.90;99.90;;;;;;5033337;28;20045;-37
2024/01/13 04:49:58;;;;;;;23.83;11.23;;;-1.90;99.90;;;;;;5028191;28;20074;-38
2024/01/13 04:52:25;;;;;;;25.23;12.05;;;-1.90;99.90;;;;;;5033392;28;20112;-40
2024/01/13 04:54:52;;;;;;;21.90;11.38;;;-1.90;99.90;;;;;;5034504;28;20042;-38
2024/01/13 04:57:20;;;;;;;23.15;10.95;;;-1.90;99.90;;;;;;5031667;28;20128;-39
2024/01/13 04:59:47;;;;;;;25.02;12.15;;;-1.90;99.90;;;;;;5032790;28;20140;-41
2024/01/13 05:02:14;;;;;;;26.33;11.93;;;-1.90;99.90;;;;;;5033045;28;20486;-40
2024/01/13 05:04:41;;;;;;;23.35;11.35;;;-1.90;99.90;;;;;;5031175;28;20061;-43
2024/01/13 05:07:08;;;;;;;22.90;11.02;;;-1.90;99.90;;;;;;5030646;28;20170;-36
2024/01/13 05:09:35;;;;;;;21.83;10.43;;;-1.90;99.90;;;;;;5032698;28;20068;-39
2024/01/13 05:12:02;;;;;;;26.65;12.13;;;-1.90;99.90;;;;;;5031476;28;20174;-39
2024/01/13 05:14:31;;;;;;;26.30;12.15;;;-1.90;99.90;;;;;;5031629;28;20053;-37
2024/01/13 05:17:02;;;;;;;24.60;11.75;;;-1.90;99.90;;;;;;5031387;28;20057;-39
2024/01/13 05:19:29;;;;;;;25.95;12.05;;;-1.80;99.90;;;;;;5029045;28;20037;-39
2024/01/13 05:21:56;;;;;;;22.90;11.02;;;-1.90;99.90;;;;;;5034912;28;20124;-39
2024/01/13 05:24:23;;;;;;;25.48;11.68;;;-1.80;99.90;;;;;;5029946;28;20053;-39
2024/01/13 05:26:50;;;;;;;24.67;11.35;;;-1.80;99.90;;;;;;5037760;28;20429;-38
2024/01/13 05:29:17;;;;;;;24.35;11.48;;;-1.80;99.90;;;;;;5028722;28;20532;-42
2024/01/13 05:31:46;;;;;;;25.05;11.70;;;-1.80;99.90;;;;;;5032963;28;20450;-41
2024/01/13 05:34:14;;;;;;;25.67;11.63;;;-1.70;99.90;;;;;;5031828;28;20119;-38
2024/01/13 05:36:41;;;;;;;22.95;11.43;;;-1.90;99.90;;;;;;5032010;28;20121;-40
2024/01/13 05:39:08;;;;;;;23.15;11.15;;;-1.80;99.90;;;;;;5032693;28;20116;-38
2024/01/13 05:41:35;;;;;;;21.10;10.07;;;-1.80;99.90;;;;;;5031114;28;20124;-40
2024/01/13 05:44:02;;;;;;;23.30;11.35;;;-1.70;99.90;;;;;;5032887;28;20039;-39
2024/01/13 05:46:29;;;;;;;25.00;11.77;;;-1.70;99.90;;;;;;5030380;28;20076;-38
2024/01/13 05:48:55;;;;;;;24.60;11.82;;;-1.70;99.90;;;;;;5033954;28;20045;-41
2024/01/13 05:51:23;;;;;;;25.92;12.80;;;-1.70;99.90;;;;;;5032534;28;20328;-39
2024/01/13 05:53:50;;;;;;;24.02;11.50;;;-1.70;99.90;;;;;;5031203;28;20136;-39
2024/01/13 05:56:17;;;;;;;26.08;11.30;;;-1.70;99.90;;;;;;5030992;28;20132;-40
2024/01/13 05:58:44;;;;;;;22.40;10.77;;;-1.80;99.90;;;;;;5031242;28;20057;-42
2024/01/13 06:01:10;;;;;;;22.55;11.77;;;-1.80;99.90;;;;;;5031075;28;20037;-41
2024/01/13 06:03:37;;;;;;;27.33;12.43;;;-1.80;99.90;;;;;;5031887;28;20399;-42
2024/01/13 06:06:08;;;;;;;25.42;11.48;;;-1.80;99.90;;;;;;5030990;28;20505;-40
2024/01/13 06:08:36;;;;;;;18.85;9.13;;;-1.70;99.90;;;;;;5028848;28;20063;-39
2024/01/13 06:11:03;;;;;;;21.85;10.18;;;-1.70;99.90;;;;;;5032856;28;20103;-36
2024/01/13 06:13:30;;;;;;;23.25;11.00;;;-1.70;99.90;;;;;;5033087;28;20080;-38
2024/01/13 06:15:57;;;;;;;26.20;12.18;;;-1.70;99.90;;;;;;5032743;28;20067;-38
2024/01/13 06:18:24;;;;;;;24.88;11.88;;;-1.70;99.90;;;;;;5028832;28;20080;-38
2024/01/13 06:20:51;;;;;;;23.67;11.73;;;-1.90;99.90;;;;;;5036041;28;20070;-39
2024/01/13 06:23:18;;;;;;;23.85;11.43;;;-1.80;99.90;;;;;;5041012;28;20034;-41
2024/01/13 06:25:45;;;;;;;25.02;11.07;;;-1.80;99.90;;;;;;5038025;28;20105;-40
2024/01/13 06:28:12;;;;;;;25.33;11.90;;;-1.70;99.90;;;;;;5039576;28;20099;-39
2024/01/13 06:30:39;;;;;;;25.92;11.65;;;-1.70;99.90;;;;;;5032184;28;20049;-39
2024/01/13 06:33:06;;;;;;;27.23;12.15;;;-1.70;99.90;;;;;;5034578;28;20048;-37
2024/01/13 06:35:33;;;;;;;23.02;12.15;;;-1.80;99.90;;;;;;5031566;28;20041;-46
2024/01/13 06:38:00;;;;;;;23.90;10.80;;;-1.80;99.90;;;;;;5030596;28;20070;-38
2024/01/13 06:40:27;;;;;;;23.50;11.18;;;-1.80;99.90;;;;;;5029244;28;20123;-38
2024/01/13 06:42:54;;;;;;;24.60;11.23;;;-1.80;99.90;;;;;;5034148;28;20478;-38
2024/01/13 06:45:21;;;;;;;24.52;12.45;;;-1.70;99.90;;;;;;5027733;28;20052;-41
2024/01/13 06:47:48;;;;;;;24.98;11.45;;;-1.80;99.90;;;;;;5030880;28;20502;-39
2024/01/13 06:50:15;;;;;;;25.30;12.20;;;-1.80;99.90;;;;;;5029881;28;20044;-41
2024/01/13 06:52:42;;;;;;;23.58;11.18;;;-1.80;99.90;;;;;;5034216;28;20046;-38
2024/01/13 06:55:09;;;;;;;26.00;12.50;;;-1.70;99.90;;;;;;5028205;28;20422;-40
2024/01/13 06:57:36;;;;;;;25.17;11.27;;;-1.70;99.90;;;;;;5035411;28;20298;-39
2024/01/13 07:00:07;;;;;;;26.02;11.82;;;-1.70;99.90;;;;;;5034952;28;20048;-37
2024/01/13 07:02:35;;;;;;;22.52;11.02;;;-1.60;99.90;;;;;;5033220;28;20562;-40
2024/01/13 07:05:02;;;;;;;29.25;12.70;;;-1.60;99.90;;;;;;5031398;28;20106;-41
2024/01/13 07:07:31;;;;;;;25.13;11.40;;;-1.70;99.90;;;;;;5036084;28;20434;-41
2024/01/13 07:09:58;;;;;;;25.88;12.52;;;-1.60;99.90;;;;;;5039050;28;20052;-39
2024/01/13 07:12:25;;;;;;;23.70;11.40;;;-1.50;99.90;;;;;;5036944;28;20452;-39
2024/01/13 07:14:52;;;;;;;24.58;11.07;;;-1.60;99.90;;;;;;5035185;28;20103;-36
2024/01/13 07:17:19;;;;;;;25.63;11.93;;;-1.60;99.90;;;;;;5032738;28;20295;-39
2024/01/13 07:19:46;;;;;;;22.70;10.95;;;-1.50;99.90;;;;;;5032620;28;21544;-38
2024/01/13 07:22:13;;;;;;;19.92;10.85;;;-1.60;99.90;;;;;;5030528;28;20152;-42
2024/01/13 07:24:40;;;;;;;20.73;10.90;;;-1.50;99.90;;;;;;5035429;28;20072;-42
2024/01/13 07:27:09;;;;;;;21.98;10.52;;;-1.50;99.90;;;;;;5028204;28;20052;-39
2024/01/13 07:29:36;;;;;;;24.17;10.13;;;-1.50;99.90;;;;;;5032546;28;20140;-41
2024/01/13 07:32:10;;;;;;;22.63;10.60;;;-1.50;99.90;;;;;;5038957;28;20091;-41
2024/01/13 07:34:36;;;;;;;23.38;11.45;;;-1.50;99.90;;;;;;5034988;28;20045;-44
2024/01/13 07:37:04;;;;;;;24.00;11.38;;;-1.50;99.90;;;;;;5032757;28;20080;-41
2024/01/13 07:39:31;;;;;;;23.38;11.73;;;-1.50;99.90;;;;;;5031641;28;20470;-40
2024/01/13 07:41:57;;;;;;;24.05;10.30;;;-1.50;99.90;;;;;;5035570;28;20052;-41
2024/01/13 07:44:25;;;;;;;31.13;11.60;;;-1.40;99.90;;;;;;5030978;28;20087;-40
2024/01/13 07:46:53;;;;;;;24.52;11.25;;;-1.40;99.90;;;;;;5036457;28;20037;-40
2024/01/13 07:49:20;;;;;;;22.70;10.68;;;-1.50;99.90;;;;;;5034068;28;20089;-38
2024/01/13 07:51:50;;;;;;;23.50;10.65;;;-1.40;99.90;;;;;;5036309;28;20050;-39
2024/01/13 07:54:17;;;;;;;23.20;11.40;;;-1.30;99.90;;;;;;5031131;28;20494;-38
2024/01/13 07:56:45;;;;;;;21.73;10.10;;;-1.40;99.90;;;;;;5035239;28;20152;-41
2024/01/13 07:59:12;;;;;;;22.77;11.32;;;-1.50;99.90;;;;;;5033225;28;20046;-41
2024/01/13 08:01:39;;;;;;;21.48;11.27;;;-1.40;99.90;;;;;;5031751;28;20134;-48
2024/01/13 08:04:06;;;;;;;22.75;9.85;;;-1.40;99.90;;;;;;5028395;28;20073;-38
2024/01/13 08:06:35;;;;;;;21.35;10.63;;;-1.30;99.90;;;;;;5030058;28;20065;-39
2024/01/13 08:09:06;;;;;;;18.55;9.80;;;-1.30;99.90;;;;;;5032646;28;20053;-39
2024/01/13 08:11:33;;;;;;;20.73;9.68;;;-1.30;99.90;;;;;;5031719;28;20139;-41
2024/01/13 08:14:08;;;;;;;20.52;10.20;;;-1.30;99.90;;;;;;5030827;28;20529;-41
2024/01/13 08:16:35;;;;;;;21.08;10.10;;;-1.30;99.90;;;;;;5026522;28;20041;-38
2024/01/13 08:19:02;;;;;;;20.50;9.63;;;-1.20;99.90;;;;;;5028548;28;20116;-40
2024/01/13 08:21:29;;;;;;;21.17;9.38;;;-1.20;99.90;;;;;;5028542;28;20042;-41
2024/01/13 08:24:06;;;;;;;17.45;8.55;;;-1.10;99.90;;;;;;5028042;28;20463;-38
2024/01/13 08:26:35;;;;;;;15.15;8.50;;;-1.10;99.90;;;;;;5031806;28;20045;-40
2024/01/13 08:29:02;;;;;;;19.60;9.63;;;-1.00;99.90;;;;;;5035403;28;20139;-39
2024/01/13 08:31:29;;;;;;;17.00;8.20;;;-1.00;99.90;;;;;;5035378;28;20045;-39
2024/01/13 08:34:07;;;;;;;14.32;7.60;;;-1.00;99.90;;;;;;5029981;28;20120;-40
2024/01/13 08:36:34;;;;;;;16.33;8.30;;;-1.00;99.90;;;;;;5030057;28;20084;-40
2024/01/13 08:39:02;;;;;;;16.60;8.43;;;-1.10;99.90;;;;;;5030552;28;20043;-42
2024/01/13 08:41:31;;;;;;;16.90;8.50;;;-1.20;99.90;;;;;;5026829;28;20050;-40
2024/01/13 08:44:01;;;;;;;15.95;8.02;;;-1.10;99.90;;;;;;5030954;28;20061;-40
2024/01/13 08:46:28;;;;;;;17.63;8.57;;;-1.10;99.90;;;;;;5029520;28;20629;-40
2024/01/13 08:48:56;;;;;;;15.52;8.43;;;-1.10;99.90;;;;;;5031718;28;20143;-41
2024/01/13 08:51:24;;;;;;;17.65;8.65;;;-1.10;99.90;;;;;;5026630;28;20120;-38
2024/01/13 08:54:05;;;;;;;18.23;8.55;;;-1.10;99.90;;;;;;5030574;28;20045;-38
2024/01/13 08:56:36;;;;;;;15.63;8.10;;;-1.10;99.90;;;;;;5031957;28;20034;-39
2024/01/13 08:59:06;;;;;;;15.53;8.53;;;-1.10;99.90;;;;;;5031618;28;20040;-39
2024/01/13 09:01:33;;;;;;;16.08;8.02;;;-1.20;99.90;;;;;;5031861;28;20298;-41
2024/01/13 09:04:06;;;;;;;;;;;-1.20;99.90;;;;;;5028220;28;20037;-39
2024/01/13 09:06:33;;;;;;;14.57;7.80;;;-1.10;99.90;;;;;;5032018;28;19928;-45
2024/01/13 09:09:02;;;;;;;13.73;7.45;;;-1.20;99.90;;;;;;5029300;28;20556;-41
2024/01/13 09:11:29;;;;;;;11.02;6.70;;;-1.10;99.90;;;;;;5031846;28;20049;-41
2024/01/13 09:14:13;;;;;;;13.45;6.78;;;-1.20;99.90;;;;;;5032605;28;20041;-38
2024/01/13 09:16:43;;;;;;;11.48;6.63;;;-1.20;99.90;;;;;;5028887;28;20435;-41
2024/01/13 09:19:10;;;;;;;14.50;7.07;;;-1.20;99.90;;;;;;5032368;28;20323;-36
2024/01/13 09:21:39;;;;;;;12.75;6.80;;;-1.20;99.90;;;;;;5030694;28;20057;-39
2024/01/13 09:24:11;;;;;;;12.13;7.05;;;-1.30;99.90;;;;;;5027438;28;20045;-38
2024/01/13 09:26:43;;;;;;;11.50;6.75;;;-1.10;99.90;;;;;;5030584;28;20589;-38
2024/01/13 09:29:15;;;;;;;12.98;6.82;;;-1.20;99.90;;;;;;5026488;28;20131;-38
2024/01/13 09:31:45;;;;;;;15.68;6.57;;;-1.20;99.90;;;;;;5035341;28;20037;-40
2024/01/13 09:34:12;;;;;;;13.65;7.50;;;-1.20;99.90;;;;;;5031289;28;20053;-38
2024/01/13 09:36:44;;;;;;;11.82;7.18;;;-1.30;99.90;;;;;;5029986;28;20073;-41
2024/01/13 09:39:18;;;;;;;15.18;7.28;;;-1.20;99.90;;;;;;5025737;28;20041;-38
2024/01/13 09:41:47;;;;;;;14.80;6.90;;;-1.10;99.90;;;;;;5028852;28;20110;-43
2024/01/13 09:44:21;;;;;;;11.32;6.70;;;-1.20;99.90;;;;;;5040090;28;20037;-36
2024/01/13 09:46:54;;;;;;;11.25;6.47;;;-1.10;99.90;;;;;;5042176;28;20101;-39
2024/01/13 09:49:29;;;;;;;9.68;5.68;;;-1.10;99.90;;;;;;5034242;28;20510;-45
2024/01/13 09:51:57;;;;;;;12.15;6.20;;;-1.00;99.90;;;;;;5033784;28;20128;-41
2024/01/13 09:54:30;;;;;;;12.15;5.75;;;-1.10;99.90;;;;;;5032114;28;20049;-40
2024/01/13 09:56:58;;;;;;;14.18;6.85;;;-1.10;99.90;;;;;;5032349;28;20132;-40
2024/01/13 09:59:28;;;;;;;10.93;6.32;;;-1.00;99.90;;;;;;5031566;28;20041;-39
2024/01/13 10:01:59;;;;;;;13.40;6.78;;;-1.00;99.90;;;;;;5032083;28;20037;-39
2024/01/13 10:04:26;;;;;;;13.98;6.65;;;-1.00;99.90;;;;;;5030049;28;20731;-36
2024/01/13 10:06:54;;;;;;;13.25;7.60;;;-1.00;99.90;;;;;;5036160;28;20226;-37
2024/01/13 10:09:21;;;;;;;11.82;6.63;;;-0.90;99.90;;;;;;5032662;28;20253;-38
2024/01/13 10:12:06;;;;;;;11.32;6.82;;;-1.00;99.90;;;;;;5030830;28;20410;-38
2024/01/13 10:14:40;;;;;;;13.98;7.65;;;-1.00;99.90;;;;;;5033540;28;20072;-42
2024/01/13 10:17:10;;;;;;;14.15;7.38;;;-1.00;99.90;;;;;;5030312;28;20079;-39
2024/01/13 10:19:39;;;;;;;14.50;7.72;;;-1.00;99.90;;;;;;5032821;28;20037;-41
2024/01/13 10:22:07;;;;;;;15.15;8.13;;;-1.00;99.90;;;;;;5034720;28;20068;-40
2024/01/13 10:24:35;;;;;;;13.10;7.15;;;-1.00;99.90;;;;;;5031288;28;20621;-38
2024/01/13 10:27:08;;;;;;;15.45;7.85;;;-1.00;99.90;;;;;;5035481;28;20052;-39
2024/01/13 10:29:37;;;;;;;14.68;8.73;;;-1.00;99.90;;;;;;5029862;28;20494;-43
2024/01/13 10:32:08;;;;;;;14.32;8.15;;;-1.10;99.90;;;;;;5035618;28;20086;-37
2024/01/13 10:34:35;;;;;;;16.52;8.05;;;-1.00;99.90;;;;;;5037327;28;20177;-43
2024/01/13 10:37:09;;;;;;;21.27;9.98;;;-1.00;99.90;;;;;;5034729;28;20136;-39
2024/01/13 10:39:38;;;;;;;17.58;8.98;;;-1.10;99.90;;;;;;5037081;28;20092;-38
2024/01/13 10:42:10;;;;;;;16.40;8.70;;;-1.00;99.90;;;;;;5039623;28;20565;-37
2024/01/13 10:44:46;;;;;;;16.98;9.40;;;-1.00;99.90;;;;;;5035537;28;20041;-39
2024/01/13 10:47:14;;;;;;;18.63;8.95;;;-1.00;99.90;;;;;;5038147;28;20041;-40
2024/01/13 10:49:44;;;;;;;16.83;9.02;;;-0.90;99.90;;;;;;5038451;28;20041;-43
2024/01/13 10:52:13;;;;;;;17.42;8.50;;;-0.90;99.90;;;;;;5037414;28;20053;-37
2024/01/13 10:54:41;;;;;;;14.45;7.80;;;-0.90;99.90;;;;;;5037099;28;20746;-40
2024/01/13 10:57:11;;;;;;;14.98;7.30;;;-1.00;99.90;;;;;;5039604;28;20141;-40
2024/01/13 10:59:39;;;;;;;18.15;9.43;;;-1.00;99.90;;;;;;5039019;28;20053;-40
2024/01/13 11:02:11;;;;;;;18.80;9.18;;;-1.00;99.90;;;;;;5042446;28;20086;-38
2024/01/13 11:04:42;;;;;;;19.02;9.45;;;-1.00;99.90;;;;;;5040775;28;20093;-40
2024/01/13 11:07:09;;;;;;;15.05;9.02;;;-1.00;99.90;;;;;;5042963;28;20051;-39
2024/01/13 11:09:38;;;;;;;16.02;8.20;;;-1.10;99.90;;;;;;5035731;28;20190;-42
2024/01/13 11:12:19;;;;;;;20.05;9.68;;;-1.00;99.90;;;;;;5034285;28;20057;-38
2024/01/13 11:15:03;;;;;;;13.98;8.68;;;-1.00;99.90;;;;;;5033192;28;20068;-41
2024/01/13 11:17:32;;;;;;;13.20;8.43;;;-1.00;99.90;;;;;;5032922;28;20414;-38
2024/01/13 11:20:02;;;;;;;17.35;8.85;;;-0.90;99.90;;;;;;5036235;28;20546;-35
2024/01/13 11:22:32;;;;;;;16.55;9.15;;;-1.10;99.90;;;;;;5034081;28;20128;-40
2024/01/13 11:25:28;;;;;;;17.35;8.45;;;-0.90;99.90;;;;;;5032598;28;20041;-38
2024/01/13 11:27:59;;;;;;;16.05;8.77;;;-0.80;99.90;;;;;;5035113;28;20052;-45
2024/01/13 11:30:38;;;;;;;16.90;8.90;;;-0.90;99.90;;;;;;5032382;28;20120;-41
2024/01/13 11:33:10;;;;;;;16.25;8.85;;;-0.90;99.90;;;;;;5033399;28;20087;-40
2024/01/13 11:35:39;;;;;;;18.48;10.30;;;-0.90;99.90;;;;;;5034532;28;20049;-40
2024/01/13 11:38:07;;;;;;;15.57;8.63;;;-0.80;99.90;;;;;;5035363;28;20103;-38
2024/01/13 11:40:34;;;;;;;17.23;10.32;;;-1.00;99.90;;;;;;5028407;28;20133;-39
2024/01/13 11:43:18;;;;;;;16.50;9.07;;;-1.00;99.90;;;;;;5036909;28;20160;-44
2024/01/13 11:45:49;;;;;;;16.63;9.05;;;-1.00;99.90;;;;;;5034129;28;20064;-40
2024/01/13 11:48:29;;;;;;;16.95;9.80;;;-1.00;99.90;;;;;;5035612;28;20477;-39
2024/01/13 11:50:57;;;;;;;18.73;10.15;;;-1.10;99.90;;;;;;5035155;28;20044;-44
2024/01/13 11:53:43;;;;;;;21.10;9.95;;;-1.10;99.90;;;;;;5032671;28;20069;-41
2024/01/13 11:56:13;;;;;;;17.05;8.98;;;-1.00;99.90;;;;;;5034626;28;20398;-40
2024/01/13 11:58:41;;;;;;;16.63;9.10;;;-1.10;99.90;;;;;;5032340;28;20140;-39
2024/01/13 12:01:09;;;;;;;17.48;10.02;;;-1.10;99.90;;;;;;5034565;28;20037;-42
2024/01/13 12:03:42;;;;;;;18.30;10.07;;;-1.10;99.90;;;;;;5034242;28;20046;-39
2024/01/13 12:06:10;;;;;;;16.05;9.13;;;-1.00;99.90;;;;;;5031733;28;20037;-40
2024/01/13 12:08:38;;;;;;;20.33;10.68;;;-0.90;99.90;;;;;;5034996;28;20418;-40
2024/01/13 12:11:06;;;;;;;17.08;9.65;;;-1.00;99.90;;;;;;5032979;28;20124;-40
2024/01/13 12:13:33;;;;;;;15.38;8.82;;;-0.80;99.90;;;;;;5033242;28;20544;-39
2024/01/13 12:16:04;;;;;;;16.60;9.57;;;-0.90;99.90;;;;;;5025416;28;20041;-38
2024/01/13 12:18:32;;;;;;;18.63;10.10;;;-0.90;99.90;;;;;;5029560;28;20048;-37
2024/01/13 12:21:03;;;;;;;18.75;10.02;;;-1.00;99.90;;;;;;5028649;28;20473;-39
2024/01/13 12:23:31;;;;;;;21.25;11.70;;;-1.10;99.90;;;;;;5029612;28;20034;-37
2024/01/13 12:25:58;;;;;;;17.45;9.20;;;-1.10;99.90;;;;;;5033944;28;20047;-38
2024/01/13 12:28:38;;;;;;;17.30;9.90;;;-1.00;99.90;;;;;;5034514;28;20522;-42
2024/01/13 12:31:06;;;;;;;17.83;10.20;;;-1.00;99.90;;;;;;5035181;28;20069;-38
2024/01/13 12:33:33;;;;;;;19.20;10.95;;;-1.10;99.90;;;;;;5032766;28;20050;-39
2024/01/13 12:36:08;;;;;;;22.65;12.07;;;-1.10;99.90;;;;;;5036673;28;20044;-36
2024/01/13 12:38:38;;;;;;;22.17;12.05;;;-1.20;99.90;;;;;;5032971;28;20111;-35
2024/01/13 12:41:09;;;;;;;21.23;11.98;;;-1.10;99.90;;;;;;5036884;28;20057;-38